sensor_id;sensor_type;location;lat;lon;timestamp;temperature;humidity
19864;DHT22;10094;48.820;9.226;2023-05-07T00:00:20;14.40;99.90
19864;DHT22;10094;48.820;9.226;2023-05-07T00:07:02;14.30;99.90
19864;DHT22;10094;48.820;9.226;2023-05-07T00:13:45;14.50;99.90
19864;DHT22;10094;48.820;9.226;2023-05-07T00:20:27;14.30;99.90
19864;DHT22;10094;48.820;9.226;2023-05-07T00:27:11;14.30;99.90
19864;DHT22;10094;48.820;9.226;2023-05-07T00:33:53;14.20;99.90
19864;DHT22;10094;48.820;9.226;2023-05-07T00:40:35;14.00;99.90
19864;DHT22;10094;48.820;9.226;2023-05-07T00:47:18;13.90;99.90
19864;DHT22;10094;48.820;9.226;2023-05-07T00:54:02;13.90;99.90
19864;DHT22;10094;48.820;9.226;2023-05-07T01:00:44;13.90;99.90
19864;DHT22;10094;48.820;9.226;2023-05-07T01:07:27;13.80;99.90
19864;DHT22;10094;48.820;9.226;2023-05-07T01:14:10;13.60;99.90
19864;DHT22;10094;48.820;9.226;2023-05-07T01:20:54;13.60;99.90
19864;DHT22;10094;48.820;9.226;2023-05-07T01:27:37;13.80;99.90
19864;DHT22;10094;48.820;9.226;2023-05-07T01:34:21;13.80;99.90
19864;DHT22;10094;48.820;9.226;2023-05-07T01:41:04;13.80;99.90
19864;DHT22;10094;48.820;9.226;2023-05-07T01:47:47;13.60;99.90
19864;DHT22;10094;48.820;9.226;2023-05-07T01:54:30;13.50;99.90
19864;DHT22;10094;48.820;9.226;2023-05-07T02:01:14;13.50;99.90
19864;DHT22;10094;48.820;9.226;2023-05-07T02:07:58;13.40;99.90
19864;DHT22;10094;48.820;9.226;2023-05-07T02:14:42;13.50;99.90
19864;DHT22;10094;48.820;9.226;2023-05-07T02:21:25;13.30;99.90
19864;DHT22;10094;48.820;9.226;2023-05-07T02:28:08;13.30;99.90
19864;DHT22;10094;48.820;9.226;2023-05-07T02:35:03;13.30;99.90
19864;DHT22;10094;48.820;9.226;2023-05-07T02:41:46;13.30;99.90
19864;DHT22;10094;48.820;9.226;2023-05-07T02:48:28;13.40;99.90
19864;DHT22;10094;48.820;9.226;2023-05-07T02:55:11;13.40;99.90
19864;DHT22;10094;48.820;9.226;2023-05-07T03:01:54;13.20;99.90
19864;DHT22;10094;48.820;9.226;2023-05-07T03:08:36;13.20;99.90
19864;DHT22;10094;48.820;9.226;2023-05-07T03:15:19;13.10;99.90
19864;DHT22;10094;48.820;9.226;2023-05-07T03:22:01;13.00;99.90
19864;DHT22;10094;48.820;9.226;2023-05-07T03:28:44;13.00;99.90
19864;DHT22;10094;48.820;9.226;2023-05-07T03:35:28;13.00;99.90
19864;DHT22;10094;48.820;9.226;2023-05-07T03:42:11;12.90;99.90
19864;DHT22;10094;48.820;9.226;2023-05-07T03:48:54;12.70;99.90
19864;DHT22;10094;48.820;9.226;2023-05-07T03:55:36;12.60;99.90
19864;DHT22;10094;48.820;9.226;2023-05-07T04:02:19;12.60;99.90
19864;DHT22;10094;48.820;9.226;2023-05-07T04:09:02;12.70;99.90
19864;DHT22;10094;48.820;9.226;2023-05-07T04:15:45;12.40;99.90
19864;DHT22;10094;48.820;9.226;2023-05-07T04:22:30;12.40;99.90
19864;DHT22;10094;48.820;9.226;2023-05-07T04:29:13;12.50;99.90
19864;DHT22;10094;48.820;9.226;2023-05-07T04:35:56;12.70;99.90
19864;DHT22;10094;48.820;9.226;2023-05-07T04:42:39;12.90;99.90
19864;DHT22;10094;48.820;9.226;2023-05-07T04:49:24;13.00;99.90
19864;DHT22;10094;48.820;9.226;2023-05-07T04:56:09;13.60;99.90
19864;DHT22;10094;48.820;9.226;2023-05-07T05:02:56;13.70;99.90
19864;DHT22;10094;48.820;9.226;2023-05-07T05:09:39;13.60;99.90
19864;DHT22;10094;48.820;9.226;2023-05-07T05:16:22;13.60;99.90
19864;DHT22;10094;48.820;9.226;2023-05-07T05:23:05;13.80;99.90
19864;DHT22;10094;48.820;9.226;2023-05-07T05:29:48;14.20;99.90
19864;DHT22;10094;48.820;9.226;2023-05-07T05:36:31;14.50;99.90
19864;DHT22;10094;48.820;9.226;2023-05-07T05:43:14;16.50;99.90
19864;DHT22;10094;48.820;9.226;2023-05-07T05:49:58;19.00;99.90
19864;DHT22;10094;48.820;9.226;2023-05-07T05:56:41;21.50;99.90
19864;DHT22;10094;48.820;9.226;2023-05-07T06:03:24;23.20;99.90
19864;DHT22;10094;48.820;9.226;2023-05-07T06:10:08;24.30;97.40
19864;DHT22;10094;48.820;9.226;2023-05-07T06:16:51;23.70;96.60
19864;DHT22;10094;48.820;9.226;2023-05-07T06:23:33;22.80;99.30
19864;DHT22;10094;48.820;9.226;2023-05-07T06:30:16;22.70;98.90
19864;DHT22;10094;48.820;9.226;2023-05-07T06:36:59;22.10;99.90
19864;DHT22;10094;48.820;9.226;2023-05-07T06:43:52;22.30;99.90
19864;DHT22;10094;48.820;9.226;2023-05-07T06:50:44;24.00;97.10
19864;DHT22;10094;48.820;9.226;2023-05-07T06:57:27;26.60;93.70
19864;DHT22;10094;48.820;9.226;2023-05-07T07:04:09;28.80;88.90
19864;DHT22;10094;48.820;9.226;2023-05-07T07:10:54;31.30;83.90
19864;DHT22;10094;48.820;9.226;2023-05-07T07:17:37;32.60;79.20
19864;DHT22;10094;48.820;9.226;2023-05-07T07:24:20;32.40;75.60
19864;DHT22;10094;48.820;9.226;2023-05-07T07:31:07;32.90;73.70
19864;DHT22;10094;48.820;9.226;2023-05-07T07:37:50;33.10;72.90
19864;DHT22;10094;48.820;9.226;2023-05-07T07:44:33;33.10;71.80
19864;DHT22;10094;48.820;9.226;2023-05-07T07:51:21;33.90;71.10
19864;DHT22;10094;48.820;9.226;2023-05-07T07:58:04;34.10;70.40
19864;DHT22;10094;48.820;9.226;2023-05-07T08:04:46;32.10;70.90
19864;DHT22;10094;48.820;9.226;2023-05-07T08:11:29;31.50;71.70
19864;DHT22;10094;48.820;9.226;2023-05-07T08:18:11;30.60;72.80
19864;DHT22;10094;48.820;9.226;2023-05-07T08:24:54;29.60;74.70
19864;DHT22;10094;48.820;9.226;2023-05-07T08:31:37;29.90;75.20
19864;DHT22;10094;48.820;9.226;2023-05-07T08:38:21;31.20;73.50
19864;DHT22;10094;48.820;9.226;2023-05-07T08:45:05;31.80;73.10
19864;DHT22;10094;48.820;9.226;2023-05-07T08:51:52;29.80;74.80
19864;DHT22;10094;48.820;9.226;2023-05-07T08:58:35;31.20;74.20
19864;DHT22;10094;48.820;9.226;2023-05-07T09:05:20;32.80;73.10
19864;DHT22;10094;48.820;9.226;2023-05-07T09:12:02;32.70;71.50
19864;DHT22;10094;48.820;9.226;2023-05-07T09:18:51;33.60;70.60
19864;DHT22;10094;48.820;9.226;2023-05-07T09:25:35;35.20;69.80
19864;DHT22;10094;48.820;9.226;2023-05-07T09:32:25;36.10;67.30
19864;DHT22;10094;48.820;9.226;2023-05-07T09:39:12;35.40;67.50
19864;DHT22;10094;48.820;9.226;2023-05-07T09:45:55;35.00;66.80
19864;DHT22;10094;48.820;9.226;2023-05-07T09:52:41;34.50;66.40
19864;DHT22;10094;48.820;9.226;2023-05-07T09:59:25;35.20;66.40
19864;DHT22;10094;48.820;9.226;2023-05-07T10:06:13;34.80;66.20
19864;DHT22;10094;48.820;9.226;2023-05-07T10:12:57;35.60;64.90
19864;DHT22;10094;48.820;9.226;2023-05-07T10:19:46;34.80;65.70
19864;DHT22;10094;48.820;9.226;2023-05-07T10:26:30;35.30;64.80
19864;DHT22;10094;48.820;9.226;2023-05-07T10:33:15;35.40;64.60
19864;DHT22;10094;48.820;9.226;2023-05-07T10:39:59;36.00;65.40
19864;DHT22;10094;48.820;9.226;2023-05-07T10:47:10;35.60;63.60
19864;DHT22;10094;48.820;9.226;2023-05-07T11:00:59;31.10;68.20
19864;DHT22;10094;48.820;9.226;2023-05-07T11:07:54;28.90;71.10
19864;DHT22;10094;48.820;9.226;2023-05-07T11:21:39;28.20;74.30
19864;DHT22;10094;48.820;9.226;2023-05-07T11:28:29;28.10;74.20
19864;DHT22;10094;48.820;9.226;2023-05-07T11:35:17;27.60;75.60
19864;DHT22;10094;48.820;9.226;2023-05-07T11:42:02;27.30;76.10
19864;DHT22;10094;48.820;9.226;2023-05-07T11:48:45;27.20;76.20
19864;DHT22;10094;48.820;9.226;2023-05-07T11:55:27;27.20;75.90
19864;DHT22;10094;48.820;9.226;2023-05-07T12:02:10;27.00;74.80
19864;DHT22;10094;48.820;9.226;2023-05-07T12:08:55;26.80;75.00
19864;DHT22;10094;48.820;9.226;2023-05-07T12:15:37;26.80;75.80
19864;DHT22;10094;48.820;9.226;2023-05-07T12:22:20;26.20;77.90
19864;DHT22;10094;48.820;9.226;2023-05-07T12:29:02;25.50;78.30
19864;DHT22;10094;48.820;9.226;2023-05-07T12:35:47;25.20;84.60
19864;DHT22;10094;48.820;9.226;2023-05-07T12:42:34;24.80;84.00
19864;DHT22;10094;48.820;9.226;2023-05-07T12:49:17;24.40;87.70
19864;DHT22;10094;48.820;9.226;2023-05-07T12:56:06;23.70;96.00
19864;DHT22;10094;48.820;9.226;2023-05-07T13:02:48;22.80;99.90
19864;DHT22;10094;48.820;9.226;2023-05-07T13:09:31;22.20;99.90
19864;DHT22;10094;48.820;9.226;2023-05-07T13:16:13;21.60;99.90
19864;DHT22;10094;48.820;9.226;2023-05-07T13:22:56;20.80;99.90
19864;DHT22;10094;48.820;9.226;2023-05-07T13:29:38;19.40;99.90
19864;DHT22;10094;48.820;9.226;2023-05-07T13:36:20;18.60;99.90
19864;DHT22;10094;48.820;9.226;2023-05-07T13:43:05;17.90;99.90
19864;DHT22;10094;48.820;9.226;2023-05-07T13:49:47;17.70;99.90
19864;DHT22;10094;48.820;9.226;2023-05-07T13:56:31;17.30;99.90
19864;DHT22;10094;48.820;9.226;2023-05-07T14:03:14;17.40;99.90
19864;DHT22;10094;48.820;9.226;2023-05-07T14:09:57;17.40;99.90
19864;DHT22;10094;48.820;9.226;2023-05-07T14:16:39;17.10;99.90
19864;DHT22;10094;48.820;9.226;2023-05-07T14:23:22;16.80;99.90
19864;DHT22;10094;48.820;9.226;2023-05-07T14:30:08;16.80;99.90
19864;DHT22;10094;48.820;9.226;2023-05-07T14:36:51;16.80;99.90
19864;DHT22;10094;48.820;9.226;2023-05-07T14:43:34;17.20;99.90
19864;DHT22;10094;48.820;9.226;2023-05-07T14:50:16;17.90;99.90
19864;DHT22;10094;48.820;9.226;2023-05-07T14:57:00;18.20;99.90
19864;DHT22;10094;48.820;9.226;2023-05-07T15:03:42;18.60;99.90
19864;DHT22;10094;48.820;9.226;2023-05-07T15:10:24;18.40;99.90
19864;DHT22;10094;48.820;9.226;2023-05-07T15:17:07;18.10;99.90
19864;DHT22;10094;48.820;9.226;2023-05-07T15:23:49;17.80;99.90
19864;DHT22;10094;48.820;9.226;2023-05-07T15:30:32;17.60;99.90
19864;DHT22;10094;48.820;9.226;2023-05-07T15:37:15;17.80;99.90
19864;DHT22;10094;48.820;9.226;2023-05-07T15:43:57;18.40;99.90
19864;DHT22;10094;48.820;9.226;2023-05-07T15:50:40;18.90;99.90
19864;DHT22;10094;48.820;9.226;2023-05-07T15:57:23;19.00;99.90
19864;DHT22;10094;48.820;9.226;2023-05-07T16:04:06;19.00;99.90
19864;DHT22;10094;48.820;9.226;2023-05-07T16:10:49;18.90;99.90
19864;DHT22;10094;48.820;9.226;2023-05-07T16:17:32;19.00;99.90
19864;DHT22;10094;48.820;9.226;2023-05-07T16:24:14;18.90;99.90
19864;DHT22;10094;48.820;9.226;2023-05-07T16:30:57;18.60;99.90
19864;DHT22;10094;48.820;9.226;2023-05-07T16:37:40;18.70;99.90
19864;DHT22;10094;48.820;9.226;2023-05-07T16:44:22;18.80;99.90
19864;DHT22;10094;48.820;9.226;2023-05-07T16:51:05;18.70;99.90
19864;DHT22;10094;48.820;9.226;2023-05-07T16:57:49;18.50;99.90
19864;DHT22;10094;48.820;9.226;2023-05-07T17:04:31;18.40;99.90
19864;DHT22;10094;48.820;9.226;2023-05-07T17:11:14;18.30;99.90
19864;DHT22;10094;48.820;9.226;2023-05-07T17:17:56;18.20;99.90
19864;DHT22;10094;48.820;9.226;2023-05-07T17:24:38;18.50;99.90
19864;DHT22;10094;48.820;9.226;2023-05-07T17:31:21;18.70;99.90
19864;DHT22;10094;48.820;9.226;2023-05-07T17:38:03;18.60;99.90
19864;DHT22;10094;48.820;9.226;2023-05-07T17:44:45;18.60;99.90
19864;DHT22;10094;48.820;9.226;2023-05-07T17:51:28;18.80;99.90
19864;DHT22;10094;48.820;9.226;2023-05-07T17:58:20;18.40;99.90
19864;DHT22;10094;48.820;9.226;2023-05-07T18:05:04;18.30;99.90
19864;DHT22;10094;48.820;9.226;2023-05-07T18:11:47;17.90;99.90
19864;DHT22;10094;48.820;9.226;2023-05-07T18:18:29;17.40;99.90
19864;DHT22;10094;48.820;9.226;2023-05-07T18:25:12;17.10;99.90
19864;DHT22;10094;48.820;9.226;2023-05-07T18:31:55;17.00;99.90
19864;DHT22;10094;48.820;9.226;2023-05-07T18:38:37;17.20;99.90
19864;DHT22;10094;48.820;9.226;2023-05-07T18:45:20;17.30;99.90
19864;DHT22;10094;48.820;9.226;2023-05-07T18:52:02;17.50;99.90
19864;DHT22;10094;48.820;9.226;2023-05-07T18:58:45;17.60;99.90
19864;DHT22;10094;48.820;9.226;2023-05-07T19:05:27;17.40;99.90
19864;DHT22;10094;48.820;9.226;2023-05-07T19:12:09;17.20;99.90
19864;DHT22;10094;48.820;9.226;2023-05-07T19:18:52;17.30;99.90
19864;DHT22;10094;48.820;9.226;2023-05-07T19:25:34;17.10;99.90
19864;DHT22;10094;48.820;9.226;2023-05-07T19:32:16;17.00;99.90
19864;DHT22;10094;48.820;9.226;2023-05-07T19:39:01;17.10;99.90
19864;DHT22;10094;48.820;9.226;2023-05-07T19:45:44;17.10;99.90
19864;DHT22;10094;48.820;9.226;2023-05-07T19:52:26;17.00;99.90
19864;DHT22;10094;48.820;9.226;2023-05-07T19:59:08;16.90;99.90
19864;DHT22;10094;48.820;9.226;2023-05-07T20:05:51;17.00;99.90
19864;DHT22;10094;48.820;9.226;2023-05-07T20:12:33;16.90;99.90
19864;DHT22;10094;48.820;9.226;2023-05-07T20:19:15;17.00;99.90
19864;DHT22;10094;48.820;9.226;2023-05-07T20:25:59;17.00;99.90
19864;DHT22;10094;48.820;9.226;2023-05-07T20:32:42;17.10;99.90
19864;DHT22;10094;48.820;9.226;2023-05-07T20:39:24;17.00;99.90
19864;DHT22;10094;48.820;9.226;2023-05-07T20:46:07;17.10;99.90
19864;DHT22;10094;48.820;9.226;2023-05-07T20:52:49;16.90;99.90
19864;DHT22;10094;48.820;9.226;2023-05-07T20:59:32;16.50;99.90
19864;DHT22;10094;48.820;9.226;2023-05-07T21:06:16;16.30;99.90
19864;DHT22;10094;48.820;9.226;2023-05-07T21:12:58;16.50;99.90
19864;DHT22;10094;48.820;9.226;2023-05-07T21:19:40;16.70;99.90
19864;DHT22;10094;48.820;9.226;2023-05-07T21:26:24;16.90;99.90
19864;DHT22;10094;48.820;9.226;2023-05-07T21:33:07;16.80;99.90
19864;DHT22;10094;48.820;9.226;2023-05-07T21:39:49;16.80;99.90
19864;DHT22;10094;48.820;9.226;2023-05-07T21:46:32;16.80;99.90
19864;DHT22;10094;48.820;9.226;2023-05-07T21:53:14;16.80;99.90
19864;DHT22;10094;48.820;9.226;2023-05-07T21:59:57;16.80;99.90
19864;DHT22;10094;48.820;9.226;2023-05-07T22:06:39;16.70;99.90
19864;DHT22;10094;48.820;9.226;2023-05-07T22:13:22;16.50;99.90
19864;DHT22;10094;48.820;9.226;2023-05-07T22:20:05;16.50;99.90
19864;DHT22;10094;48.820;9.226;2023-05-07T22:26:47;16.50;99.90
19864;DHT22;10094;48.820;9.226;2023-05-07T22:33:31;16.40;99.90
19864;DHT22;10094;48.820;9.226;2023-05-07T22:40:13;16.30;99.90
19864;DHT22;10094;48.820;9.226;2023-05-07T22:46:56;16.10;99.90
19864;DHT22;10094;48.820;9.226;2023-05-07T22:53:38;16.30;99.90
19864;DHT22;10094;48.820;9.226;2023-05-07T23:00:20;16.40;99.90
19864;DHT22;10094;48.820;9.226;2023-05-07T23:07:03;16.40;99.90
19864;DHT22;10094;48.820;9.226;2023-05-07T23:13:45;16.20;99.90
19864;DHT22;10094;48.820;9.226;2023-05-07T23:20:28;16.30;99.90
19864;DHT22;10094;48.820;9.226;2023-05-07T23:27:10;16.30;99.90
19864;DHT22;10094;48.820;9.226;2023-05-07T23:33:52;16.30;99.90
19864;DHT22;10094;48.820;9.226;2023-05-07T23:40:35;16.30;99.90
19864;DHT22;10094;48.820;9.226;2023-05-07T23:47:17;16.30;99.90
19864;DHT22;10094;48.820;9.226;2023-05-07T23:54:00;16.10;99.90
